KFCS

Butts AAF (Fort Carson) Airport

Fort Carson, Colorado, USA
METAR KFCS 242002Z AUTO 28011G16KT 10SM CLR 04/M23 A2972 RMK AO2 WSHFT 01 SLP111 $
Observed Flight Rules
Feb-24 @ 20:02 UTC (12 minutes ago) Visual Flight Rules
Wind Visibility Clouds
280° at 11 knots
 Gusting to 16 knots
10 miles
  • Clear skies
Temperatures Readings
Current 4°C / 39°F
Dewpoint -23°C / -9°F
Humidity 12%
Altimeter 29.72" Hg
Pressure 1011.1 hPa
Elevation 1789
METAR KFCS 242002Z AUTO 28011G16KT 10SM CLR 04/M23 A2972 RMK AO2 WSHFT 01 SLP111 $
Observed Flight Rules
Feb-24 @ 20:02 UTC
(12 minutes ago)
VFR
Wind Visibility
280° at 11 knots
 Gusting to 16 knots
10 miles
Clouds
  • Clear skies
Temperature Dewpoint
4°C / 39°F -23°C / -9°F
Humidity Altimeter Pressure
12% 29.72" Hg 1011.1 hPa